sensor_id;sensor_type;location;lat;lon;timestamp;P1;durP1;ratioP1;P2;durP2;ratioP2
56114;SDS011;41988;53.020;6.576;2023-05-10T00:05:42;16.52;;;11.27;;
56114;SDS011;41988;53.020;6.576;2023-05-10T00:08:58;20.02;;;11.02;;
56114;SDS011;41988;53.020;6.576;2023-05-10T00:29:19;16.95;;;10.00;;
56114;SDS011;41988;53.020;6.576;2023-05-10T00:35:36;18.38;;;10.38;;
56114;SDS011;41988;53.020;6.576;2023-05-10T00:45:00;17.55;;;10.55;;
56114;SDS011;41988;53.020;6.576;2023-05-10T00:48:05;19.15;;;11.05;;
56114;SDS011;41988;53.020;6.576;2023-05-10T00:54:36;16.45;;;9.90;;
56114;SDS011;41988;53.020;6.576;2023-05-10T00:57:44;16.13;;;9.82;;
56114;SDS011;41988;53.020;6.576;2023-05-10T01:00:33;19.42;;;10.70;;
56114;SDS011;41988;53.020;6.576;2023-05-10T01:03:25;14.32;;;9.52;;
56114;SDS011;41988;53.020;6.576;2023-05-10T01:06:19;16.85;;;10.07;;
56114;SDS011;41988;53.020;6.576;2023-05-10T01:09:27;18.17;;;9.52;;
56114;SDS011;41988;53.020;6.576;2023-05-10T01:12:19;18.10;;;10.18;;
56114;SDS011;41988;53.020;6.576;2023-05-10T01:15:07;15.70;;;9.85;;
56114;SDS011;41988;53.020;6.576;2023-05-10T01:59:26;22.55;;;13.05;;
56114;SDS011;41988;53.020;6.576;2023-05-10T02:02:54;21.48;;;13.40;;
56114;SDS011;41988;53.020;6.576;2023-05-10T02:05:59;21.25;;;12.40;;
56114;SDS011;41988;53.020;6.576;2023-05-10T02:09:28;23.23;;;12.63;;
56114;SDS011;41988;53.020;6.576;2023-05-10T02:12:17;21.92;;;12.57;;
56114;SDS011;41988;53.020;6.576;2023-05-10T02:15:09;21.73;;;12.23;;
56114;SDS011;41988;53.020;6.576;2023-05-10T02:18:04;22.25;;;12.65;;
56114;SDS011;41988;53.020;6.576;2023-05-10T02:21:06;25.05;;;13.23;;
56114;SDS011;41988;53.020;6.576;2023-05-10T02:27:13;23.35;;;13.55;;
56114;SDS011;41988;53.020;6.576;2023-05-10T02:30:01;22.90;;;12.88;;
56114;SDS011;41988;53.020;6.576;2023-05-10T02:32:48;25.10;;;12.63;;
56114;SDS011;41988;53.020;6.576;2023-05-10T02:35:36;21.50;;;12.88;;
56114;SDS011;41988;53.020;6.576;2023-05-10T02:38:21;26.30;;;13.23;;
56114;SDS011;41988;53.020;6.576;2023-05-10T02:41:09;25.33;;;13.02;;
56114;SDS011;41988;53.020;6.576;2023-05-10T02:43:55;23.77;;;12.65;;
56114;SDS011;41988;53.020;6.576;2023-05-10T02:46:51;25.88;;;13.48;;
56114;SDS011;41988;53.020;6.576;2023-05-10T02:59:12;32.28;;;15.77;;
56114;SDS011;41988;53.020;6.576;2023-05-10T03:02:04;31.75;;;15.60;;
56114;SDS011;41988;53.020;6.576;2023-05-10T03:22:12;27.77;;;15.45;;
56114;SDS011;41988;53.020;6.576;2023-05-10T03:25:24;31.27;;;15.32;;
56114;SDS011;41988;53.020;6.576;2023-05-10T03:28:12;29.05;;;15.85;;
56114;SDS011;41988;53.020;6.576;2023-05-10T03:31:10;27.85;;;14.75;;
56114;SDS011;41988;53.020;6.576;2023-05-10T03:33:58;33.75;;;17.25;;
56114;SDS011;41988;53.020;6.576;2023-05-10T03:36:51;29.08;;;15.07;;
56114;SDS011;41988;53.020;6.576;2023-05-10T03:39:35;26.05;;;13.60;;
56114;SDS011;41988;53.020;6.576;2023-05-10T03:45:53;25.95;;;13.93;;
56114;SDS011;41988;53.020;6.576;2023-05-10T03:49:05;28.77;;;14.23;;
56114;SDS011;41988;53.020;6.576;2023-05-10T03:52:06;30.20;;;16.48;;
56114;SDS011;41988;53.020;6.576;2023-05-10T03:55:11;28.30;;;15.18;;
56114;SDS011;41988;53.020;6.576;2023-05-10T04:01:15;26.02;;;13.88;;
56114;SDS011;41988;53.020;6.576;2023-05-10T04:04:08;20.88;;;12.55;;
56114;SDS011;41988;53.020;6.576;2023-05-10T04:10:15;17.70;;;11.20;;
56114;SDS011;41988;53.020;6.576;2023-05-10T04:13:18;19.65;;;11.05;;
56114;SDS011;41988;53.020;6.576;2023-05-10T04:16:14;18.48;;;11.15;;
56114;SDS011;41988;53.020;6.576;2023-05-10T04:19:08;20.30;;;11.50;;
56114;SDS011;41988;53.020;6.576;2023-05-10T04:21:58;21.80;;;12.73;;
56114;SDS011;41988;53.020;6.576;2023-05-10T04:24:46;18.98;;;10.57;;
56114;SDS011;41988;53.020;6.576;2023-05-10T04:27:30;19.40;;;12.15;;
56114;SDS011;41988;53.020;6.576;2023-05-10T04:30:18;20.42;;;11.20;;
56114;SDS011;41988;53.020;6.576;2023-05-10T04:33:03;18.10;;;10.90;;
56114;SDS011;41988;53.020;6.576;2023-05-10T04:35:53;16.63;;;10.93;;
56114;SDS011;41988;53.020;6.576;2023-05-10T04:38:37;22.42;;;11.73;;
56114;SDS011;41988;53.020;6.576;2023-05-10T04:41:22;17.58;;;10.55;;
56114;SDS011;41988;53.020;6.576;2023-05-10T04:44:19;16.52;;;10.75;;
56114;SDS011;41988;53.020;6.576;2023-05-10T04:47:04;14.18;;;10.20;;
56114;SDS011;41988;53.020;6.576;2023-05-10T04:49:51;12.45;;;9.32;;
56114;SDS011;41988;53.020;6.576;2023-05-10T04:52:35;16.15;;;11.48;;
56114;SDS011;41988;53.020;6.576;2023-05-10T04:55:24;15.07;;;10.32;;
56114;SDS011;41988;53.020;6.576;2023-05-10T04:58:11;13.32;;;9.43;;
56114;SDS011;41988;53.020;6.576;2023-05-10T05:00:59;15.20;;;9.82;;
56114;SDS011;41988;53.020;6.576;2023-05-10T05:03:52;14.30;;;9.75;;
56114;SDS011;41988;53.020;6.576;2023-05-10T05:06:37;13.10;;;9.23;;
56114;SDS011;41988;53.020;6.576;2023-05-10T05:09:26;16.63;;;10.68;;
56114;SDS011;41988;53.020;6.576;2023-05-10T05:12:40;11.20;;;8.02;;
56114;SDS011;41988;53.020;6.576;2023-05-10T05:15:25;12.55;;;8.93;;
56114;SDS011;41988;53.020;6.576;2023-05-10T05:18:21;11.68;;;8.57;;
56114;SDS011;41988;53.020;6.576;2023-05-10T05:21:16;13.20;;;8.10;;
56114;SDS011;41988;53.020;6.576;2023-05-10T05:24:09;10.05;;;7.25;;
56114;SDS011;41988;53.020;6.576;2023-05-10T05:26:59;11.38;;;8.00;;
56114;SDS011;41988;53.020;6.576;2023-05-10T05:29:44;16.60;;;10.60;;
56114;SDS011;41988;53.020;6.576;2023-05-10T05:32:50;9.90;;;7.72;;
56114;SDS011;41988;53.020;6.576;2023-05-10T05:35:59;11.55;;;7.70;;
56114;SDS011;41988;53.020;6.576;2023-05-10T05:38:47;13.85;;;7.97;;
56114;SDS011;41988;53.020;6.576;2023-05-10T05:41:34;10.73;;;7.40;;
56114;SDS011;41988;53.020;6.576;2023-05-10T05:44:27;10.43;;;7.43;;
56114;SDS011;41988;53.020;6.576;2023-05-10T05:47:12;9.55;;;6.97;;
56114;SDS011;41988;53.020;6.576;2023-05-10T05:50:00;10.90;;;6.95;;
56114;SDS011;41988;53.020;6.576;2023-05-10T05:52:47;8.88;;;6.60;;
56114;SDS011;41988;53.020;6.576;2023-05-10T05:55:32;11.98;;;6.78;;
56114;SDS011;41988;53.020;6.576;2023-05-10T05:58:21;12.73;;;7.13;;
56114;SDS011;41988;53.020;6.576;2023-05-10T06:01:08;8.80;;;6.10;;
56114;SDS011;41988;53.020;6.576;2023-05-10T06:03:53;7.53;;;4.97;;
56114;SDS011;41988;53.020;6.576;2023-05-10T06:06:40;7.10;;;5.10;;
56114;SDS011;41988;53.020;6.576;2023-05-10T06:09:29;6.78;;;4.63;;
56114;SDS011;41988;53.020;6.576;2023-05-10T06:12:16;7.75;;;5.00;;
56114;SDS011;41988;53.020;6.576;2023-05-10T06:15:00;8.50;;;5.35;;
56114;SDS011;41988;53.020;6.576;2023-05-10T06:17:45;8.73;;;5.18;;
56114;SDS011;41988;53.020;6.576;2023-05-10T06:20:33;6.43;;;4.50;;
56114;SDS011;41988;53.020;6.576;2023-05-10T06:23:17;9.18;;;5.22;;
56114;SDS011;41988;53.020;6.576;2023-05-10T06:26:13;5.75;;;4.05;;
56114;SDS011;41988;53.020;6.576;2023-05-10T06:29:00;6.15;;;4.32;;
56114;SDS011;41988;53.020;6.576;2023-05-10T06:31:45;7.00;;;4.10;;
56114;SDS011;41988;53.020;6.576;2023-05-10T06:34:58;4.50;;;3.40;;
56114;SDS011;41988;53.020;6.576;2023-05-10T06:38:05;4.70;;;3.40;;
56114;SDS011;41988;53.020;6.576;2023-05-10T06:44:22;3.35;;;1.20;;
56114;SDS011;41988;53.020;6.576;2023-05-10T06:47:28;4.90;;;1.77;;
56114;SDS011;41988;53.020;6.576;2023-05-10T06:56:40;2.15;;;1.05;;
56114;SDS011;41988;53.020;6.576;2023-05-10T06:59:53;1.60;;;1.00;;
56114;SDS011;41988;53.020;6.576;2023-05-10T07:03:22;1.30;;;0.80;;
56114;SDS011;41988;53.020;6.576;2023-05-10T07:06:11;1.25;;;0.80;;
56114;SDS011;41988;53.020;6.576;2023-05-10T07:09:07;0.93;;;0.68;;
56114;SDS011;41988;53.020;6.576;2023-05-10T07:12:15;0.80;;;0.50;;
56114;SDS011;41988;53.020;6.576;2023-05-10T07:15:02;0.70;;;0.50;;
56114;SDS011;41988;53.020;6.576;2023-05-10T07:17:56;0.63;;;0.50;;
56114;SDS011;41988;53.020;6.576;2023-05-10T07:20:48;1.05;;;0.80;;
56114;SDS011;41988;53.020;6.576;2023-05-10T07:24:10;1.30;;;0.80;;
56114;SDS011;41988;53.020;6.576;2023-05-10T07:30:29;3.05;;;0.90;;
56114;SDS011;41988;53.020;6.576;2023-05-10T07:33:26;1.35;;;0.80;;
56114;SDS011;41988;53.020;6.576;2023-05-10T07:48:16;2.47;;;1.58;;
56114;SDS011;41988;53.020;6.576;2023-05-10T07:51:27;3.10;;;2.00;;
56114;SDS011;41988;53.020;6.576;2023-05-10T07:57:13;6.25;;;2.50;;
56114;SDS011;41988;53.020;6.576;2023-05-10T08:00:06;5.43;;;3.30;;
56114;SDS011;41988;53.020;6.576;2023-05-10T08:03:00;5.60;;;3.78;;
56114;SDS011;41988;53.020;6.576;2023-05-10T08:05:50;4.63;;;3.53;;
56114;SDS011;41988;53.020;6.576;2023-05-10T08:08:55;5.13;;;3.13;;
56114;SDS011;41988;53.020;6.576;2023-05-10T08:11:45;4.15;;;2.92;;
56114;SDS011;41988;53.020;6.576;2023-05-10T08:14:46;4.60;;;2.83;;
56114;SDS011;41988;53.020;6.576;2023-05-10T08:17:57;4.95;;;2.92;;
56114;SDS011;41988;53.020;6.576;2023-05-10T08:21:02;3.42;;;2.30;;
56114;SDS011;41988;53.020;6.576;2023-05-10T08:24:05;4.95;;;2.92;;
56114;SDS011;41988;53.020;6.576;2023-05-10T08:26:52;4.55;;;2.80;;
56114;SDS011;41988;53.020;6.576;2023-05-10T08:40:13;4.53;;;2.90;;
56114;SDS011;41988;53.020;6.576;2023-05-10T08:43:01;5.60;;;2.42;;
56114;SDS011;41988;53.020;6.576;2023-05-10T08:46:15;3.17;;;2.42;;
56114;SDS011;41988;53.020;6.576;2023-05-10T08:48:55;4.43;;;3.00;;
56114;SDS011;41988;53.020;6.576;2023-05-10T08:55:11;4.30;;;3.10;;
56114;SDS011;41988;53.020;6.576;2023-05-10T08:57:59;5.60;;;3.60;;
56114;SDS011;41988;53.020;6.576;2023-05-10T09:04:17;3.80;;;2.42;;
56114;SDS011;41988;53.020;6.576;2023-05-10T09:07:19;4.75;;;2.40;;
56114;SDS011;41988;53.020;6.576;2023-05-10T09:10:14;5.05;;;2.80;;
56114;SDS011;41988;53.020;6.576;2023-05-10T09:13:13;3.95;;;2.28;;
56114;SDS011;41988;53.020;6.576;2023-05-10T09:16:02;3.45;;;2.50;;
56114;SDS011;41988;53.020;6.576;2023-05-10T09:18:52;4.95;;;2.45;;
56114;SDS011;41988;53.020;6.576;2023-05-10T09:21:42;3.85;;;2.55;;
56114;SDS011;41988;53.020;6.576;2023-05-10T09:28:22;3.70;;;2.33;;
56114;SDS011;41988;53.020;6.576;2023-05-10T09:31:17;5.13;;;3.33;;
56114;SDS011;41988;53.020;6.576;2023-05-10T09:34:04;5.15;;;3.88;;
56114;SDS011;41988;53.020;6.576;2023-05-10T09:36:53;6.80;;;3.92;;
56114;SDS011;41988;53.020;6.576;2023-05-10T09:39:46;5.63;;;3.97;;
56114;SDS011;41988;53.020;6.576;2023-05-10T09:43:00;5.45;;;3.40;;
56114;SDS011;41988;53.020;6.576;2023-05-10T09:45:54;9.07;;;4.43;;
56114;SDS011;41988;53.020;6.576;2023-05-10T09:48:50;6.00;;;3.85;;
56114;SDS011;41988;53.020;6.576;2023-05-10T09:51:44;7.22;;;4.30;;
56114;SDS011;41988;53.020;6.576;2023-05-10T09:54:29;6.90;;;4.18;;
56114;SDS011;41988;53.020;6.576;2023-05-10T10:00:34;7.72;;;4.30;;
56114;SDS011;41988;53.020;6.576;2023-05-10T10:17:35;12.00;;;5.80;;
56114;SDS011;41988;53.020;6.576;2023-05-10T10:20:26;8.98;;;5.60;;
56114;SDS011;41988;53.020;6.576;2023-05-10T10:23:14;8.15;;;5.50;;
56114;SDS011;41988;53.020;6.576;2023-05-10T10:26:04;10.05;;;6.20;;
56114;SDS011;41988;53.020;6.576;2023-05-10T10:32:01;9.40;;;6.40;;
56114;SDS011;41988;53.020;6.576;2023-05-10T10:34:51;9.82;;;5.70;;
56114;SDS011;41988;53.020;6.576;2023-05-10T10:37:45;8.35;;;5.32;;
56114;SDS011;41988;53.020;6.576;2023-05-10T10:40:33;8.73;;;5.30;;
56114;SDS011;41988;53.020;6.576;2023-05-10T10:43:28;8.02;;;5.07;;
56114;SDS011;41988;53.020;6.576;2023-05-10T10:46:16;12.73;;;5.55;;
56114;SDS011;41988;53.020;6.576;2023-05-10T10:49:10;9.77;;;6.18;;
56114;SDS011;41988;53.020;6.576;2023-05-10T10:58:32;8.90;;;5.60;;
56114;SDS011;41988;53.020;6.576;2023-05-10T11:01:20;9.50;;;5.60;;
56114;SDS011;41988;53.020;6.576;2023-05-10T11:06:53;9.18;;;5.40;;
56114;SDS011;41988;53.020;6.576;2023-05-10T11:10:04;8.68;;;5.68;;
56114;SDS011;41988;53.020;6.576;2023-05-10T11:15:55;8.40;;;5.13;;
56114;SDS011;41988;53.020;6.576;2023-05-10T11:18:53;9.43;;;5.68;;
56114;SDS011;41988;53.020;6.576;2023-05-10T11:21:50;7.82;;;5.60;;
56114;SDS011;41988;53.020;6.576;2023-05-10T11:25:00;6.65;;;3.42;;
56114;SDS011;41988;53.020;6.576;2023-05-10T11:27:58;7.13;;;3.42;;
56114;SDS011;41988;53.020;6.576;2023-05-10T11:36:15;5.65;;;3.10;;
56114;SDS011;41988;53.020;6.576;2023-05-10T11:41:59;5.35;;;2.97;;
56114;SDS011;41988;53.020;6.576;2023-05-10T11:45:04;6.63;;;2.50;;
56114;SDS011;41988;53.020;6.576;2023-05-10T11:47:58;5.57;;;2.13;;
56114;SDS011;41988;53.020;6.576;2023-05-10T11:51:03;8.73;;;2.55;;
56114;SDS011;41988;53.020;6.576;2023-05-10T11:53:48;5.18;;;3.22;;
56114;SDS011;41988;53.020;6.576;2023-05-10T11:56:41;6.13;;;4.57;;
56114;SDS011;41988;53.020;6.576;2023-05-10T11:59:37;9.20;;;4.68;;
56114;SDS011;41988;53.020;6.576;2023-05-10T12:02:44;7.57;;;4.40;;
56114;SDS011;41988;53.020;6.576;2023-05-10T12:05:32;6.47;;;4.97;;
56114;SDS011;41988;53.020;6.576;2023-05-10T12:08:20;8.30;;;5.75;;
56114;SDS011;41988;53.020;6.576;2023-05-10T12:11:08;7.28;;;5.38;;
56114;SDS011;41988;53.020;6.576;2023-05-10T12:14:26;9.25;;;5.28;;
56114;SDS011;41988;53.020;6.576;2023-05-10T12:17:24;6.88;;;5.05;;
56114;SDS011;41988;53.020;6.576;2023-05-10T12:20:15;9.30;;;5.53;;
56114;SDS011;41988;53.020;6.576;2023-05-10T12:22:59;7.35;;;5.15;;
56114;SDS011;41988;53.020;6.576;2023-05-10T12:25:52;11.00;;;5.78;;
56114;SDS011;41988;53.020;6.576;2023-05-10T12:28:45;7.88;;;5.78;;
56114;SDS011;41988;53.020;6.576;2023-05-10T12:31:56;9.00;;;5.70;;
56114;SDS011;41988;53.020;6.576;2023-05-10T12:35:00;9.00;;;6.20;;
56114;SDS011;41988;53.020;6.576;2023-05-10T12:38:22;10.10;;;6.55;;
56114;SDS011;41988;53.020;6.576;2023-05-10T12:41:16;9.18;;;6.32;;
56114;SDS011;41988;53.020;6.576;2023-05-10T12:44:04;9.23;;;6.20;;
56114;SDS011;41988;53.020;6.576;2023-05-10T12:46:59;9.98;;;6.65;;
56114;SDS011;41988;53.020;6.576;2023-05-10T12:49:53;11.98;;;8.10;;
56114;SDS011;41988;53.020;6.576;2023-05-10T12:52:37;11.73;;;7.47;;
56114;SDS011;41988;53.020;6.576;2023-05-10T12:55:25;9.70;;;6.60;;
56114;SDS011;41988;53.020;6.576;2023-05-10T12:58:10;8.90;;;6.43;;
56114;SDS011;41988;53.020;6.576;2023-05-10T13:00:55;10.30;;;6.43;;
56114;SDS011;41988;53.020;6.576;2023-05-10T13:03:42;7.70;;;5.60;;
56114;SDS011;41988;53.020;6.576;2023-05-10T13:06:29;8.52;;;5.95;;
56114;SDS011;41988;53.020;6.576;2023-05-10T13:09:25;9.52;;;5.88;;
56114;SDS011;41988;53.020;6.576;2023-05-10T13:14:58;10.18;;;6.78;;
56114;SDS011;41988;53.020;6.576;2023-05-10T13:20:19;11.90;;;7.00;;
56114;SDS011;41988;53.020;6.576;2023-05-10T13:23:06;8.90;;;6.18;;
56114;SDS011;41988;53.020;6.576;2023-05-10T13:36:10;10.40;;;6.50;;
56114;SDS011;41988;53.020;6.576;2023-05-10T13:38:54;10.10;;;6.55;;
56114;SDS011;41988;53.020;6.576;2023-05-10T13:41:42;11.13;;;6.47;;
56114;SDS011;41988;53.020;6.576;2023-05-10T13:44:30;8.30;;;6.13;;
56114;SDS011;41988;53.020;6.576;2023-05-10T13:47:17;8.15;;;6.50;;
56114;SDS011;41988;53.020;6.576;2023-05-10T13:50:04;11.45;;;6.43;;
56114;SDS011;41988;53.020;6.576;2023-05-10T13:52:51;8.73;;;6.45;;
56114;SDS011;41988;53.020;6.576;2023-05-10T13:55:47;9.95;;;6.45;;
56114;SDS011;41988;53.020;6.576;2023-05-10T14:01:25;8.43;;;5.60;;
56114;SDS011;41988;53.020;6.576;2023-05-10T14:04:27;9.40;;;5.55;;
56114;SDS011;41988;53.020;6.576;2023-05-10T14:12:35;7.70;;;5.38;;
56114;SDS011;41988;53.020;6.576;2023-05-10T14:15:22;6.93;;;4.22;;
56114;SDS011;41988;53.020;6.576;2023-05-10T14:18:23;7.53;;;4.25;;
56114;SDS011;41988;53.020;6.576;2023-05-10T14:23:47;10.02;;;5.15;;
56114;SDS011;41988;53.020;6.576;2023-05-10T14:26:34;7.32;;;4.78;;
56114;SDS011;41988;53.020;6.576;2023-05-10T14:29:22;7.20;;;5.03;;
56114;SDS011;41988;53.020;6.576;2023-05-10T14:32:26;7.75;;;4.72;;
56114;SDS011;41988;53.020;6.576;2023-05-10T14:35:21;7.80;;;4.72;;
56114;SDS011;41988;53.020;6.576;2023-05-10T14:38:06;8.20;;;5.60;;
56114;SDS011;41988;53.020;6.576;2023-05-10T14:40:53;9.23;;;5.72;;
56114;SDS011;41988;53.020;6.576;2023-05-10T14:43:40;9.05;;;5.50;;
56114;SDS011;41988;53.020;6.576;2023-05-10T14:46:28;8.43;;;5.93;;
56114;SDS011;41988;53.020;6.576;2023-05-10T14:49:13;11.05;;;5.35;;
56114;SDS011;41988;53.020;6.576;2023-05-10T14:52:08;10.38;;;6.47;;
56114;SDS011;41988;53.020;6.576;2023-05-10T14:55:04;9.02;;;5.95;;
56114;SDS011;41988;53.020;6.576;2023-05-10T14:57:49;8.25;;;6.00;;
56114;SDS011;41988;53.020;6.576;2023-05-10T15:00:34;9.43;;;6.22;;
56114;SDS011;41988;53.020;6.576;2023-05-10T15:03:18;11.65;;;6.25;;
56114;SDS011;41988;53.020;6.576;2023-05-10T15:06:03;9.85;;;6.40;;
56114;SDS011;41988;53.020;6.576;2023-05-10T15:08:48;9.77;;;5.85;;
56114;SDS011;41988;53.020;6.576;2023-05-10T15:11:35;7.60;;;5.55;;
56114;SDS011;41988;53.020;6.576;2023-05-10T15:14:45;8.13;;;4.95;;
56114;SDS011;41988;53.020;6.576;2023-05-10T15:17:36;6.07;;;3.38;;
56114;SDS011;41988;53.020;6.576;2023-05-10T15:20:23;4.05;;;2.67;;
56114;SDS011;41988;53.020;6.576;2023-05-10T15:23:08;5.97;;;2.55;;
56114;SDS011;41988;53.020;6.576;2023-05-10T15:25:53;6.75;;;3.17;;
56114;SDS011;41988;53.020;6.576;2023-05-10T15:28:39;5.50;;;2.85;;
56114;SDS011;41988;53.020;6.576;2023-05-10T15:34:00;5.32;;;2.55;;
56114;SDS011;41988;53.020;6.576;2023-05-10T15:36:48;4.10;;;2.75;;
56114;SDS011;41988;53.020;6.576;2023-05-10T15:39:33;7.07;;;3.28;;
56114;SDS011;41988;53.020;6.576;2023-05-10T15:42:22;9.02;;;3.95;;
56114;SDS011;41988;53.020;6.576;2023-05-10T15:45:07;7.95;;;4.03;;
56114;SDS011;41988;53.020;6.576;2023-05-10T15:47:52;5.90;;;4.05;;
56114;SDS011;41988;53.020;6.576;2023-05-10T15:50:37;8.45;;;3.88;;
56114;SDS011;41988;53.020;6.576;2023-05-10T15:53:24;6.80;;;4.65;;
56114;SDS011;41988;53.020;6.576;2023-05-10T15:56:08;7.15;;;4.47;;
56114;SDS011;41988;53.020;6.576;2023-05-10T15:58:53;7.90;;;4.50;;
56114;SDS011;41988;53.020;6.576;2023-05-10T16:01:38;8.48;;;4.40;;
56114;SDS011;41988;53.020;6.576;2023-05-10T16:04:23;6.97;;;4.15;;
56114;SDS011;41988;53.020;6.576;2023-05-10T16:07:08;12.32;;;4.30;;
56114;SDS011;41988;53.020;6.576;2023-05-10T16:09:52;7.15;;;4.57;;
56114;SDS011;41988;53.020;6.576;2023-05-10T16:12:37;7.45;;;4.55;;
56114;SDS011;41988;53.020;6.576;2023-05-10T16:15:22;7.75;;;5.15;;
56114;SDS011;41988;53.020;6.576;2023-05-10T16:18:07;10.35;;;5.60;;
56114;SDS011;41988;53.020;6.576;2023-05-10T16:20:52;7.50;;;4.97;;
56114;SDS011;41988;53.020;6.576;2023-05-10T16:23:37;10.27;;;6.30;;
56114;SDS011;41988;53.020;6.576;2023-05-10T16:26:22;12.25;;;6.75;;
56114;SDS011;41988;53.020;6.576;2023-05-10T16:29:07;11.05;;;7.65;;
56114;SDS011;41988;53.020;6.576;2023-05-10T16:31:52;12.77;;;6.60;;
56114;SDS011;41988;53.020;6.576;2023-05-10T16:34:37;10.43;;;6.82;;
56114;SDS011;41988;53.020;6.576;2023-05-10T16:37:22;11.52;;;6.85;;
56114;SDS011;41988;53.020;6.576;2023-05-10T16:40:06;9.90;;;6.60;;
56114;SDS011;41988;53.020;6.576;2023-05-10T16:42:51;9.10;;;6.10;;
56114;SDS011;41988;53.020;6.576;2023-05-10T16:45:36;7.82;;;5.93;;
56114;SDS011;41988;53.020;6.576;2023-05-10T16:48:20;10.50;;;6.72;;
56114;SDS011;41988;53.020;6.576;2023-05-10T16:51:06;11.80;;;6.18;;
56114;SDS011;41988;53.020;6.576;2023-05-10T16:53:52;9.80;;;6.30;;
56114;SDS011;41988;53.020;6.576;2023-05-10T16:56:37;9.45;;;5.80;;
56114;SDS011;41988;53.020;6.576;2023-05-10T16:59:21;9.88;;;6.25;;
56114;SDS011;41988;53.020;6.576;2023-05-10T17:02:05;9.15;;;6.65;;
56114;SDS011;41988;53.020;6.576;2023-05-10T17:04:50;9.35;;;5.93;;
56114;SDS011;41988;53.020;6.576;2023-05-10T17:07:37;10.63;;;6.35;;
56114;SDS011;41988;53.020;6.576;2023-05-10T17:10:22;8.68;;;5.60;;
56114;SDS011;41988;53.020;6.576;2023-05-10T17:13:06;10.07;;;6.00;;
56114;SDS011;41988;53.020;6.576;2023-05-10T17:15:54;10.32;;;5.68;;
56114;SDS011;41988;53.020;6.576;2023-05-10T17:18:39;8.32;;;5.72;;
56114;SDS011;41988;53.020;6.576;2023-05-10T17:21:25;8.30;;;5.78;;
56114;SDS011;41988;53.020;6.576;2023-05-10T17:24:09;9.23;;;6.70;;
56114;SDS011;41988;53.020;6.576;2023-05-10T17:26:54;13.70;;;8.85;;
56114;SDS011;41988;53.020;6.576;2023-05-10T17:29:42;15.07;;;8.88;;
56114;SDS011;41988;53.020;6.576;2023-05-10T17:32:27;12.40;;;9.77;;
56114;SDS011;41988;53.020;6.576;2023-05-10T17:35:12;11.85;;;8.48;;
56114;SDS011;41988;53.020;6.576;2023-05-10T17:37:56;16.65;;;9.73;;
56114;SDS011;41988;53.020;6.576;2023-05-10T17:40:41;15.63;;;10.00;;
56114;SDS011;41988;53.020;6.576;2023-05-10T17:43:25;14.18;;;9.38;;
56114;SDS011;41988;53.020;6.576;2023-05-10T17:46:10;11.75;;;8.90;;
56114;SDS011;41988;53.020;6.576;2023-05-10T17:48:55;14.20;;;10.05;;
56114;SDS011;41988;53.020;6.576;2023-05-10T17:51:39;12.27;;;9.88;;
56114;SDS011;41988;53.020;6.576;2023-05-10T17:54:26;14.88;;;9.50;;
56114;SDS011;41988;53.020;6.576;2023-05-10T17:57:11;12.95;;;9.48;;
56114;SDS011;41988;53.020;6.576;2023-05-10T17:59:55;12.68;;;9.43;;
56114;SDS011;41988;53.020;6.576;2023-05-10T18:02:40;14.52;;;9.68;;
56114;SDS011;41988;53.020;6.576;2023-05-10T18:05:25;11.65;;;9.15;;
56114;SDS011;41988;53.020;6.576;2023-05-10T18:08:11;14.50;;;8.85;;
56114;SDS011;41988;53.020;6.576;2023-05-10T18:10:58;11.55;;;7.50;;
56114;SDS011;41988;53.020;6.576;2023-05-10T18:13:45;12.60;;;7.63;;
56114;SDS011;41988;53.020;6.576;2023-05-10T18:16:32;8.90;;;6.55;;
56114;SDS011;41988;53.020;6.576;2023-05-10T18:19:17;8.48;;;5.18;;
56114;SDS011;41988;53.020;6.576;2023-05-10T18:22:02;8.13;;;5.35;;
56114;SDS011;41988;53.020;6.576;2023-05-10T18:24:47;7.82;;;5.25;;
56114;SDS011;41988;53.020;6.576;2023-05-10T18:27:31;8.13;;;5.10;;
56114;SDS011;41988;53.020;6.576;2023-05-10T18:30:17;6.88;;;4.97;;
56114;SDS011;41988;53.020;6.576;2023-05-10T18:33:02;6.50;;;3.72;;
56114;SDS011;41988;53.020;6.576;2023-05-10T18:35:46;16.88;;;4.65;;
56114;SDS011;41988;53.020;6.576;2023-05-10T18:38:31;7.22;;;5.90;;
56114;SDS011;41988;53.020;6.576;2023-05-10T18:41:19;7.57;;;5.95;;
56114;SDS011;41988;53.020;6.576;2023-05-10T18:44:09;8.88;;;6.00;;
56114;SDS011;41988;53.020;6.576;2023-05-10T18:46:53;7.75;;;5.93;;
56114;SDS011;41988;53.020;6.576;2023-05-10T18:49:38;10.05;;;6.13;;
56114;SDS011;41988;53.020;6.576;2023-05-10T18:52:22;8.90;;;6.85;;
56114;SDS011;41988;53.020;6.576;2023-05-10T18:55:07;9.60;;;6.43;;
56114;SDS011;41988;53.020;6.576;2023-05-10T18:57:52;8.60;;;6.35;;
56114;SDS011;41988;53.020;6.576;2023-05-10T19:00:40;8.60;;;6.35;;
56114;SDS011;41988;53.020;6.576;2023-05-10T19:03:24;8.18;;;6.43;;
56114;SDS011;41988;53.020;6.576;2023-05-10T19:06:09;8.40;;;6.65;;
56114;SDS011;41988;53.020;6.576;2023-05-10T19:08:54;8.93;;;6.90;;
56114;SDS011;41988;53.020;6.576;2023-05-10T19:11:39;8.80;;;6.30;;
56114;SDS011;41988;53.020;6.576;2023-05-10T19:14:27;10.88;;;7.80;;
56114;SDS011;41988;53.020;6.576;2023-05-10T19:17:11;10.63;;;7.20;;
56114;SDS011;41988;53.020;6.576;2023-05-10T19:19:56;11.55;;;7.50;;
56114;SDS011;41988;53.020;6.576;2023-05-10T19:22:43;8.57;;;6.38;;
56114;SDS011;41988;53.020;6.576;2023-05-10T19:25:27;10.63;;;7.05;;
56114;SDS011;41988;53.020;6.576;2023-05-10T19:28:12;9.90;;;7.22;;
56114;SDS011;41988;53.020;6.576;2023-05-10T19:30:57;11.25;;;7.97;;
56114;SDS011;41988;53.020;6.576;2023-05-10T19:33:42;9.52;;;6.95;;
56114;SDS011;41988;53.020;6.576;2023-05-10T19:36:26;10.05;;;7.05;;
56114;SDS011;41988;53.020;6.576;2023-05-10T19:39:11;10.32;;;7.60;;
56114;SDS011;41988;53.020;6.576;2023-05-10T19:41:56;14.30;;;7.78;;
56114;SDS011;41988;53.020;6.576;2023-05-10T19:44:42;11.60;;;8.57;;
56114;SDS011;41988;53.020;6.576;2023-05-10T19:47:26;12.77;;;8.45;;
56114;SDS011;41988;53.020;6.576;2023-05-10T19:50:29;11.50;;;8.52;;
56114;SDS011;41988;53.020;6.576;2023-05-10T19:56:27;12.85;;;8.40;;
56114;SDS011;41988;53.020;6.576;2023-05-10T19:59:14;11.73;;;8.48;;
56114;SDS011;41988;53.020;6.576;2023-05-10T20:01:59;11.57;;;9.13;;
56114;SDS011;41988;53.020;6.576;2023-05-10T20:04:43;11.25;;;8.05;;
56114;SDS011;41988;53.020;6.576;2023-05-10T20:07:31;11.38;;;7.38;;
56114;SDS011;41988;53.020;6.576;2023-05-10T20:10:16;11.48;;;8.57;;
56114;SDS011;41988;53.020;6.576;2023-05-10T20:13:01;12.55;;;8.02;;
56114;SDS011;41988;53.020;6.576;2023-05-10T20:15:45;10.27;;;8.02;;
56114;SDS011;41988;53.020;6.576;2023-05-10T20:18:30;15.15;;;8.82;;
56114;SDS011;41988;53.020;6.576;2023-05-10T20:21:14;12.88;;;9.05;;
56114;SDS011;41988;53.020;6.576;2023-05-10T20:23:59;12.98;;;8.45;;
56114;SDS011;41988;53.020;6.576;2023-05-10T20:26:44;12.10;;;8.77;;
56114;SDS011;41988;53.020;6.576;2023-05-10T20:29:29;12.60;;;8.55;;
56114;SDS011;41988;53.020;6.576;2023-05-10T20:32:17;13.05;;;8.93;;
56114;SDS011;41988;53.020;6.576;2023-05-10T20:35:01;11.90;;;8.77;;
56114;SDS011;41988;53.020;6.576;2023-05-10T20:37:46;14.88;;;10.25;;
56114;SDS011;41988;53.020;6.576;2023-05-10T20:40:31;14.27;;;9.40;;
56114;SDS011;41988;53.020;6.576;2023-05-10T20:43:23;13.70;;;10.30;;
56114;SDS011;41988;53.020;6.576;2023-05-10T20:46:08;13.95;;;9.45;;
56114;SDS011;41988;53.020;6.576;2023-05-10T20:48:53;12.65;;;9.55;;
56114;SDS011;41988;53.020;6.576;2023-05-10T20:51:38;11.23;;;8.55;;
56114;SDS011;41988;53.020;6.576;2023-05-10T20:54:23;15.45;;;10.05;;
56114;SDS011;41988;53.020;6.576;2023-05-10T20:57:08;17.65;;;9.65;;